Bay City, Oregon
Current Conditions -  °F | °C
As of 8:35 AM on Wednesday 22 Oct 2014 (Local Time) from KTMK Reporting Station
Light Rain Light Rain  
Wind Chill: 61°   Ceiling: 3400
Heat Index: 61°   Visibility: 10mi
Dew Point: 57°   Wind: 8mph
Humidity: 88%   Direction: 170°S
Pressure: 29.75"   Gusts: 12mph
Location:  45.52°N, 123.89°W
Report Text: KTMK 221535Z AUTO 17007G10KT 150V210 10SM -RA SCT021 BKN034 OVC065 16/14 A2975 RMK AO2 P0003
Loading
Personal Weather Stations






























Interactive Weather Map
Tropical Storm Tracking
New forecast layout! Learn more

10-Day Weather Forecast

Advertisements
Track Severe Weather on mobile